Photometre #394[NE_1.6] Lille AOT

File : 20220824_394.hum

24/08/2022,05:46:47,TEMP=18.4,BA=5.64,STAT.A=9.0,ExtBa=13.00
24/08/2022,05:50:50,TEMP=18.5,BA=5.64,STAT.A=9.0,ExtBa=13.00
24/08/2022,05:55:33,TEMP=18.5,BA=5.64,STAT.A=9.0,ExtBa=12.99
24/08/2022,06:01:09,TEMP=18.8,BA=5.64,STAT.A=9.0,ExtBa=13.01
24/08/2022,06:07:51,TEMP=19.1,BA=5.64,STAT.A=9.0,ExtBa=13.01
24/08/2022,06:16:06,TEMP=19.8,BA=5.64,STAT.A=9.0,ExtBa=13.01
24/08/2022,06:26:26,TEMP=20.8,BA=5.64,STAT.B=9.5,ExtBa=13.00
24/08/2022,06:35:11,TEMP=22.1,BA=5.60,STAT.A=9.0,ExtBa=12.75
24/08/2022,06:37:03,TEMP=22.4,BA=5.60,STAT.A=9.0,ExtBa=12.79
24/08/2022,06:43:00,TEMP=22.7,BA=5.64,STAT.A=9.5,ExtBa=12.92
24/08/2022,06:49:58,TEMP=23.2,BA=5.64,STAT.A=9.5,ExtBa=13.00
24/08/2022,06:57:57,TEMP=23.8,BA=5.60,STAT.C=9.5,ExtBa=13.05
24/08/2022,07:11:35,TEMP=25.2,BA=5.56,STAT.A=9.5,ExtBa=12.71
24/08/2022,07:17:59,TEMP=25.2,BA=5.56,STAT.A=9.5,ExtBa=12.91
24/08/2022,07:30:52,TEMP=25.6,BA=5.64,STAT.A=9.5,ExtBa=13.05
24/08/2022,07:46:33,TEMP=26.2,BA=5.64,STAT.A=9.5,ExtBa=13.12
24/08/2022,08:06:11,TEMP=27.8,BA=5.64,STAT.B=10.0,ExtBa=13.14
24/08/2022,08:48:12,TEMP=29.7,BA=5.64,STAT.B=10.0,ExtBa=13.14
24/08/2022,08:56:53,TEMP=30.3,BA=5.56,STAT.F,ExtBa=12.74
24/08/2022,09:10:24,TEMP=30.7,BA=5.52,STAT.D=9.5,ExtBa=12.70
24/08/2022,09:20:30,TEMP=30.2,BA=5.64,STAT.D=10.0,ExtBa=12.97
24/08/2022,09:35:30,TEMP=30.9,BA=5.64,STAT.D=10.0,ExtBa=13.08
24/08/2022,09:50:32,TEMP=32.0,BA=5.60,STAT.F,ExtBa=13.10
24/08/2022,10:09:36,TEMP=31.4,BA=5.52,STAT.D=10.0,ExtBa=12.89
24/08/2022,10:20:30,TEMP=31.2,BA=5.60,STAT.D=10.0,ExtBa=13.00
24/08/2022,10:35:30,TEMP=30.8,BA=5.60,STAT.D=10.0,ExtBa=13.08
24/08/2022,10:50:32,TEMP=29.3,BA=5.60,STAT.F,ExtBa=13.10
24/08/2022,11:05:30,TEMP=28.8,BA=5.60,STAT.D=10.0,ExtBa=13.13
24/08/2022,11:20:30,TEMP=28.8,BA=5.60,STAT.D=10.0,ExtBa=13.13
24/08/2022,11:35:31,TEMP=29.1,BA=5.60,STAT.D=10.0,ExtBa=13.14
24/08/2022,11:50:32,TEMP=29.1,BA=5.60,STAT.F,ExtBa=13.12
24/08/2022,12:05:31,TEMP=29.1,BA=5.60,STAT.D=10.0,ExtBa=13.13
24/08/2022,12:20:31,TEMP=29.5,BA=5.60,STAT.D=10.0,ExtBa=13.13
24/08/2022,12:35:30,TEMP=29.9,BA=5.60,STAT.D=10.0,ExtBa=13.09
24/08/2022,12:50:32,TEMP=31.9,BA=5.60,STAT.F,ExtBa=13.07
24/08/2022,13:05:30,TEMP=34.5,BA=5.52,STAT.D=10.0,ExtBa=12.85
24/08/2022,13:20:30,TEMP=35.4,BA=5.60,STAT.D=10.0,ExtBa=13.06
24/08/2022,13:35:30,TEMP=36.5,BA=5.60,STAT.D=10.0,ExtBa=13.10
24/08/2022,13:50:32,TEMP=37.3,BA=5.60,STAT.F,ExtBa=13.11
24/08/2022,14:05:30,TEMP=36.9,BA=5.48,STAT.D=10.0,ExtBa=12.85
24/08/2022,14:20:30,TEMP=36.8,BA=5.60,STAT.D=10.0,ExtBa=13.04
24/08/2022,14:35:30,TEMP=34.5,BA=5.60,STAT.D=10.5,ExtBa=13.08
24/08/2022,14:50:32,TEMP=34.7,BA=5.56,STAT.F,ExtBa=13.09
24/08/2022,15:05:14,TEMP=35.0,BA=5.48,STAT.B=10.0,ExtBa=12.77
24/08/2022,15:34:51,TEMP=33.9,BA=5.60,STAT.B=10.0,ExtBa=13.03
24/08/2022,15:54:29,TEMP=34.6,BA=5.60,STAT.A=10.0,ExtBa=12.98
24/08/2022,16:10:10,TEMP=34.4,BA=5.52,STAT.A=10.0,ExtBa=13.05
24/08/2022,16:23:03,TEMP=33.3,BA=5.60,STAT.A=10.0,ExtBa=13.07
24/08/2022,16:33:51,TEMP=32.7,BA=5.60,STAT.A=10.0,ExtBa=13.08
24/08/2022,16:43:05,TEMP=32.1,BA=5.60,STAT.C=10.0,ExtBa=13.08
24/08/2022,16:51:04,TEMP=31.6,BA=5.60,STAT.A=10.0,ExtBa=13.08
24/08/2022,16:59:22,TEMP=31.2,BA=5.60,STAT.A=10.0,ExtBa=13.07
24/08/2022,17:04:12,TEMP=31.1,BA=5.48,STAT.A=10.0,ExtBa=13.06
24/08/2022,17:09:41,TEMP=30.9,BA=5.48,STAT.A=10.0,ExtBa=13.06
24/08/2022,17:14:35,TEMP=30.8,BA=5.52,STAT.B=10.0,ExtBa=13.06
24/08/2022,17:24:55,TEMP=30.5,BA=5.48,STAT.A=10.0,ExtBa=12.81
24/08/2022,17:33:09,TEMP=30.2,BA=5.60,STAT.A=10.0,ExtBa=12.95
24/08/2022,17:39:51,TEMP=30.4,BA=5.60,STAT.A=10.0,ExtBa=12.98
24/08/2022,17:45:27,TEMP=30.6,BA=5.52,STAT.A=10.0,ExtBa=12.99
24/08/2022,17:50:10,TEMP=30.5,BA=5.56,STAT.A=10.0,ExtBa=13.00
24/08/2022,17:54:13,TEMP=30.6,BA=5.56,STAT.A=10.0,ExtBa=12.98